createdAt,value
2023-02-16T00:01:17.094Z,101931.84
2023-02-16T00:03:46.667Z,101949.78
2023-02-16T00:06:16.188Z,101977.69
2023-02-16T00:08:46.720Z,101967.16
2023-02-16T00:11:35.927Z,101966.84
2023-02-16T00:14:05.119Z,101911.81
2023-02-16T00:16:32.828Z,101880.56
2023-02-16T00:19:02.063Z,101871.78
2023-02-16T00:21:29.791Z,101859.69
2023-02-16T00:23:57.499Z,101874.94
2023-02-16T00:26:27.076Z,101873.53
2023-02-16T00:28:58.452Z,101865.97
2023-02-16T00:31:27.893Z,101864.53
2023-02-16T00:33:56.033Z,101863.63
2023-02-16T00:36:25.220Z,101869.69
2023-02-16T00:38:53.206Z,101884.50
2023-02-16T00:41:41.728Z,101900.88
2023-02-16T00:44:15.986Z,101930.50
2023-02-16T00:46:44.289Z,101944.78
2023-02-16T00:49:15.511Z,101943.81
2023-02-16T00:51:45.117Z,101975.91
2023-02-16T00:54:13.272Z,101965.59
2023-02-16T00:56:42.924Z,101958.25
2023-02-16T00:59:16.917Z,101952.63
2023-02-16T01:01:45.003Z,101945.78
2023-02-16T01:04:20.360Z,101960.25
2023-02-16T01:07:18.546Z,101928.06
2023-02-16T01:10:03.804Z,101924.28
2023-02-16T01:12:31.542Z,101914.09
2023-02-16T01:14:59.243Z,101912.41
2023-02-16T01:17:26.991Z,101892.25
2023-02-16T01:19:55.204Z,101902.03
2023-02-16T01:22:24.287Z,101926.25
2023-02-16T01:24:52.016Z,101944.97
2023-02-16T01:27:19.889Z,101937.97
2023-02-16T01:29:47.616Z,101925.09
2023-02-16T01:32:15.390Z,101925.75
2023-02-16T01:34:43.158Z,101938.94
2023-02-16T01:37:16.018Z,101925.41
2023-02-16T01:39:45.569Z,101916.25
2023-02-16T01:42:24.224Z,101923.59
2023-02-16T01:44:53.871Z,101922.44
2023-02-16T01:47:36.642Z,101897.25
2023-02-16T01:50:17.213Z,101892.50
2023-02-16T01:52:51.341Z,101891.72
2023-02-16T01:55:25.116Z,101884.66
2023-02-16T01:57:58.130Z,101872.75
2023-02-16T02:00:31.129Z,101882.53
2023-02-16T02:03:16.508Z,101896.63
2023-02-16T02:05:44.548Z,101872.59
2023-02-16T02:08:20.324Z,101880.16
2023-02-16T02:11:00.707Z,101888.66
2023-02-16T02:13:33.763Z,101889.31
2023-02-16T02:16:02.627Z,101871.31
2023-02-16T02:18:30.381Z,101856.94
2023-02-16T02:21:34.771Z,101840.16
2023-02-16T02:24:30.702Z,101858.63
2023-02-16T02:27:15.336Z,101888.34
2023-02-16T02:30:00.916Z,101885.63
2023-02-16T02:32:39.904Z,101863.25
2023-02-16T02:35:21.398Z,101834.75
2023-02-16T02:37:54.506Z,101846.06
2023-02-16T02:40:34.570Z,101851.28
2023-02-16T02:43:09.338Z,101854.78
2023-02-16T02:45:42.223Z,101830.00
2023-02-16T02:48:09.938Z,101832.44
2023-02-16T02:51:02.472Z,101840.53
2023-02-16T02:53:30.968Z,101823.28
2023-02-16T02:56:17.983Z,101833.47
2023-02-16T02:59:07.754Z,101836.03
2023-02-16T03:01:38.278Z,101825.09
2023-02-16T03:04:09.501Z,101823.06
2023-02-16T03:06:39.918Z,101791.66
2023-02-16T03:09:12.109Z,101775.56
2023-02-16T03:11:57.230Z,101727.50
2023-02-16T03:14:31.819Z,101691.91
2023-02-16T03:17:19.384Z,101644.59
2023-02-16T03:20:08.006Z,101623.97
2023-02-16T03:22:54.867Z,101599.94
2023-02-16T03:25:41.222Z,101585.13
2023-02-16T03:28:29.154Z,101591.72
2023-02-16T03:31:01.602Z,101586.44
2023-02-16T03:33:30.440Z,101592.31
2023-02-16T03:35:59.241Z,101628.25
2023-02-16T03:38:27.529Z,101629.50
2023-02-16T03:40:55.650Z,101620.50
2023-02-16T03:43:26.290Z,101607.63
2023-02-16T03:45:54.056Z,101630.50
2023-02-16T03:48:23.275Z,101612.25
2023-02-16T03:50:50.997Z,101606.53
2023-02-16T03:53:19.837Z,101622.44
2023-02-16T03:55:49.207Z,101604.97
2023-02-16T03:58:19.506Z,101613.78
2023-02-16T04:00:47.313Z,101582.22
2023-02-16T04:03:15.618Z,101584.22
2023-02-16T04:05:45.605Z,101575.44
2023-02-16T04:08:13.528Z,101582.16
2023-02-16T04:10:41.493Z,101583.63
2023-02-16T04:13:08.222Z,101580.06
2023-02-16T04:15:36.359Z,101570.53
2023-02-16T04:18:04.154Z,101586.22
2023-02-16T04:20:34.071Z,101600.06
2023-02-16T04:23:03.818Z,101629.13
2023-02-16T04:25:31.727Z,101647.25
2023-02-16T04:27:59.666Z,101676.19
2023-02-16T04:30:30.086Z,101665.69
2023-02-16T04:32:58.791Z,101669.63
2023-02-16T04:35:26.564Z,101656.19
2023-02-16T04:37:54.447Z,101653.34
2023-02-16T04:40:23.902Z,101656.19
2023-02-16T04:42:51.688Z,101613.44
2023-02-16T04:45:19.507Z,101593.22
2023-02-16T04:47:47.269Z,101583.13
2023-02-16T04:50:15.019Z,101575.53
2023-02-16T04:52:42.754Z,101576.13
2023-02-16T04:55:10.828Z,101569.59
2023-02-16T04:57:40.515Z,101586.19
2023-02-16T05:00:11.659Z,101584.53
2023-02-16T05:02:39.490Z,101569.94
2023-02-16T05:05:08.026Z,101588.03
2023-02-16T05:07:36.260Z,101596.63
2023-02-16T05:10:04.078Z,101586.19
2023-02-16T05:12:49.221Z,101562.34
2023-02-16T05:15:18.465Z,101556.44
2023-02-16T05:17:46.256Z,101565.97
2023-02-16T05:20:14.599Z,101554.28
2023-02-16T05:22:43.575Z,101565.97
2023-02-16T05:25:11.331Z,101593.31
2023-02-16T05:27:39.050Z,101577.75
2023-02-16T05:30:08.747Z,101560.22
2023-02-16T05:32:37.893Z,101548.97
2023-02-16T05:35:06.610Z,101530.22
2023-02-16T05:37:34.360Z,101532.25
2023-02-16T05:40:02.376Z,101541.88
2023-02-16T05:42:30.124Z,101532.44
2023-02-16T05:44:57.861Z,101517.59
2023-02-16T05:47:25.586Z,101518.00
2023-02-16T05:49:54.659Z,101521.78
2023-02-16T05:52:22.486Z,101519.94
2023-02-16T05:54:50.234Z,101515.38
2023-02-16T05:57:18.019Z,101503.59
2023-02-16T05:59:45.748Z,101491.97
2023-02-16T06:02:13.519Z,101498.25
2023-02-16T06:04:41.279Z,101488.78
2023-02-16T06:07:10.807Z,101479.84
2023-02-16T06:09:39.366Z,101472.91
2023-02-16T06:12:07.808Z,101478.72
2023-02-16T06:14:35.521Z,101470.66
2023-02-16T06:17:03.796Z,101472.34
2023-02-16T06:19:32.432Z,101481.72
2023-02-16T06:22:00.200Z,101494.94
2023-02-16T06:24:29.753Z,101493.28
2023-02-16T06:26:57.572Z,101488.00
2023-02-16T06:29:25.520Z,101504.19
2023-02-16T06:31:53.306Z,101515.13
2023-02-16T06:34:21.132Z,101510.75
2023-02-16T06:36:48.908Z,101505.03
2023-02-16T06:39:16.670Z,101494.78
2023-02-16T06:41:45.761Z,101499.97
2023-02-16T06:44:15.305Z,101504.38
2023-02-16T06:46:44.579Z,101481.19
2023-02-16T06:49:14.063Z,101491.38
2023-02-16T06:51:41.935Z,101482.34
2023-02-16T06:54:09.799Z,101479.28
2023-02-16T06:56:38.106Z,101497.00
2023-02-16T06:59:07.719Z,101511.22
2023-02-16T07:01:35.747Z,101513.50
2023-02-16T07:04:03.615Z,101497.91
2023-02-16T07:06:31.922Z,101501.28
2023-02-16T07:09:00.710Z,101498.19
2023-02-16T07:11:28.551Z,101487.28
2023-02-16T07:13:56.462Z,101490.75
2023-02-16T07:16:26.019Z,101498.13
2023-02-16T07:18:53.803Z,101502.00
2023-02-16T07:21:21.547Z,101494.34
2023-02-16T07:23:49.308Z,101486.47
2023-02-16T07:26:17.082Z,101491.16
2023-02-16T07:28:44.817Z,101499.03
2023-02-16T07:31:15.252Z,101486.38
2023-02-16T07:33:45.167Z,101480.56
2023-02-16T07:36:14.835Z,101469.72
2023-02-16T07:38:42.934Z,101471.91
2023-02-16T07:41:11.614Z,101469.44
2023-02-16T07:43:42.706Z,101472.50
2023-02-16T07:46:10.800Z,101478.50
2023-02-16T07:48:38.562Z,101491.25
2023-02-16T07:51:08.070Z,101480.59
2023-02-16T07:53:36.048Z,101487.19
2023-02-16T07:56:04.107Z,101476.06
2023-02-16T07:58:31.851Z,101486.94
2023-02-16T08:01:09.014Z,101492.31
2023-02-16T08:03:36.797Z,101494.38
2023-02-16T08:06:05.079Z,101506.50
2023-02-16T08:08:34.572Z,101515.31
2023-02-16T08:11:09.773Z,101534.09
2023-02-16T08:13:37.514Z,101535.91
2023-02-16T08:16:09.205Z,101525.06
2023-02-16T08:18:37.030Z,101500.59
2023-02-16T08:21:13.884Z,101539.31
2023-02-16T08:23:47.661Z,101533.16
2023-02-16T08:26:18.205Z,101517.66
2023-02-16T08:28:47.092Z,101515.41
2023-02-16T08:31:15.511Z,101552.50
2023-02-16T08:33:43.969Z,101540.44
2023-02-16T08:36:18.921Z,101565.59
2023-02-16T08:38:50.154Z,101653.72
2023-02-16T08:41:18.314Z,101603.56
2023-02-16T08:43:46.237Z,101599.47
2023-02-16T08:46:14.497Z,101588.25
2023-02-16T08:48:45.187Z,101588.63
2023-02-16T08:51:15.414Z,101593.94
2023-02-16T08:53:43.151Z,101601.44
2023-02-16T08:56:12.277Z,101623.22
2023-02-16T08:58:40.214Z,101657.22
2023-02-16T09:01:09.020Z,101687.13
2023-02-16T09:03:38.449Z,101702.38
2023-02-16T09:06:07.325Z,101715.88
2023-02-16T09:08:37.535Z,101737.41
2023-02-16T09:11:06.784Z,101759.06
2023-02-16T09:13:37.885Z,101801.28
2023-02-16T09:16:06.994Z,101845.78
2023-02-16T09:18:36.837Z,101876.75
2023-02-16T09:21:06.807Z,101896.31
2023-02-16T09:23:35.726Z,101851.59
2023-02-16T09:26:06.970Z,101864.97
2023-02-16T09:28:36.590Z,101883.88
2023-02-16T09:31:10.495Z,101873.00
2023-02-16T09:33:38.588Z,101863.63
2023-02-16T09:36:07.709Z,101873.97
2023-02-16T09:38:35.829Z,101869.53
2023-02-16T09:41:08.326Z,101861.81
2023-02-16T09:43:46.684Z,101844.00
2023-02-16T09:46:22.151Z,101891.25
2023-02-16T09:48:51.303Z,101879.97
2023-02-16T09:51:29.427Z,101895.84
2023-02-16T09:54:12.200Z,101851.38
2023-02-16T09:56:47.341Z,101848.44
2023-02-16T09:59:30.156Z,101830.59
2023-02-16T10:02:05.669Z,101838.38
2023-02-16T10:04:44.215Z,101859.66
2023-02-16T10:07:24.247Z,101867.22
2023-02-16T10:09:55.769Z,101863.13
2023-02-16T10:12:27.413Z,101870.13
2023-02-16T10:15:00.490Z,101876.25
2023-02-16T10:17:34.742Z,101863.66
2023-02-16T10:20:09.263Z,101850.66
2023-02-16T10:22:42.807Z,101853.47
2023-02-16T10:25:14.864Z,101855.63
2023-02-16T10:27:45.592Z,101853.72
2023-02-16T10:30:18.782Z,101849.59
2023-02-16T10:32:56.526Z,101832.88
2023-02-16T10:35:31.473Z,101829.94
2023-02-16T10:38:06.003Z,101814.19
2023-02-16T10:40:48.343Z,101823.69
2023-02-16T10:43:21.474Z,101819.44
2023-02-16T10:45:54.141Z,101798.09
2023-02-16T10:48:23.354Z,101790.75
2023-02-16T10:50:58.982Z,101770.69
2023-02-16T10:53:37.717Z,101757.47
2023-02-16T10:56:28.299Z,101742.38
2023-02-16T10:58:58.449Z,101727.16
2023-02-16T11:01:37.115Z,101684.50
2023-02-16T11:04:05.438Z,101703.06
2023-02-16T11:06:36.393Z,101732.66
2023-02-16T11:09:06.698Z,101708.53
2023-02-16T11:11:38.256Z,101709.28
2023-02-16T11:14:09.415Z,101708.00
2023-02-16T11:16:38.737Z,101724.13
2023-02-16T11:19:09.957Z,101717.88
2023-02-16T11:21:47.363Z,101709.91
2023-02-16T11:24:26.390Z,101713.78
2023-02-16T11:27:03.218Z,101682.50
2023-02-16T11:29:31.472Z,101659.47
2023-02-16T11:32:06.299Z,101676.84
2023-02-16T11:34:36.781Z,101682.13
2023-02-16T11:37:09.145Z,101684.44
2023-02-16T11:39:39.986Z,101669.13
2023-02-16T11:42:10.490Z,101692.53
2023-02-16T11:44:41.310Z,101683.53
2023-02-16T11:47:24.391Z,101705.19
2023-02-16T11:50:10.002Z,101727.41
2023-02-16T11:52:37.999Z,101727.22
2023-02-16T11:55:19.454Z,101776.09
2023-02-16T11:57:47.216Z,101777.09
2023-02-16T12:00:17.424Z,101774.28
2023-02-16T12:03:07.981Z,101755.06
2023-02-16T12:05:43.662Z,101791.50
2023-02-16T12:08:38.391Z,101769.16
2023-02-16T12:11:19.425Z,101770.63
2023-02-16T12:13:55.557Z,101744.31
2023-02-16T12:16:33.045Z,101750.78
2023-02-16T12:19:14.485Z,101733.00
2023-02-16T12:21:47.904Z,101739.91
2023-02-16T12:24:28.652Z,101744.34
2023-02-16T12:26:59.294Z,101743.75
2023-02-16T12:29:41.473Z,101739.19
2023-02-16T12:32:31.556Z,101752.38
2023-02-16T12:35:13.810Z,101753.41
2023-02-16T12:37:47.829Z,101750.00
2023-02-16T12:40:23.655Z,101749.16
2023-02-16T12:43:04.027Z,101731.66
2023-02-16T12:45:36.600Z,101730.81
2023-02-16T12:48:17.558Z,101729.75
2023-02-16T12:50:49.872Z,101762.56
2023-02-16T12:53:26.928Z,101774.72
2023-02-16T12:55:59.380Z,101796.69
2023-02-16T12:58:31.626Z,101798.56
2023-02-16T13:01:04.075Z,101822.03
2023-02-16T13:03:39.310Z,101819.16
2023-02-16T13:06:19.505Z,101799.28
2023-02-16T13:08:52.823Z,101819.47
2023-02-16T13:11:24.606Z,101820.72
2023-02-16T13:13:54.639Z,101806.22
2023-02-16T13:16:30.598Z,101793.09
2023-02-16T13:18:59.150Z,101785.41
2023-02-16T13:21:54.264Z,101735.38
2023-02-16T13:24:34.425Z,101715.47
2023-02-16T13:27:16.975Z,101721.50
2023-02-16T13:30:00.298Z,101681.19
2023-02-16T13:32:44.836Z,101691.78
2023-02-16T13:35:37.907Z,101696.16
2023-02-16T13:38:25.152Z,101701.28
2023-02-16T13:41:12.682Z,101671.91
2023-02-16T13:43:45.058Z,101673.66
2023-02-16T13:46:20.047Z,101665.19
2023-02-16T13:48:50.168Z,101685.50
2023-02-16T13:51:21.939Z,101672.06
2023-02-16T13:53:56.982Z,101668.97
2023-02-16T13:56:36.102Z,101672.66
2023-02-16T13:59:57.703Z,101661.00
2023-02-16T14:02:55.603Z,101669.78
2023-02-16T14:05:27.544Z,101682.66
2023-02-16T14:08:16.003Z,101682.09
2023-02-16T14:11:19.102Z,101660.13
2023-02-16T14:13:49.410Z,101660.03
2023-02-16T14:16:31.643Z,101639.69
2023-02-16T14:19:03.588Z,101636.94
2023-02-16T14:21:39.767Z,101613.09
2023-02-16T14:24:12.828Z,101613.09
2023-02-16T14:26:55.424Z,101617.16
2023-02-16T14:29:28.145Z,101594.81
2023-02-16T14:32:02.594Z,101615.88
2023-02-16T14:34:37.537Z,101624.28
2023-02-16T14:37:34.845Z,101617.66
2023-02-16T14:40:13.891Z,101582.53
2023-02-16T14:42:59.261Z,101609.50
2023-02-16T14:46:11.630Z,101607.91
2023-02-16T14:49:15.214Z,101623.81
2023-02-16T14:51:58.777Z,101622.47
2023-02-16T14:54:49.758Z,101647.16
2023-02-16T14:57:22.838Z,101602.75
2023-02-16T14:59:57.251Z,101572.53
2023-02-16T15:02:30.570Z,101569.91
2023-02-16T15:04:59.231Z,101578.91
2023-02-16T15:07:29.217Z,101593.34
2023-02-16T15:09:59.641Z,101603.53
2023-02-16T15:12:32.793Z,101608.88
2023-02-16T15:15:03.926Z,101623.78
2023-02-16T15:17:35.627Z,101602.38
2023-02-16T15:20:10.651Z,101595.78
2023-02-16T15:22:44.284Z,101594.63
2023-02-16T15:25:25.642Z,101594.06
2023-02-16T15:27:54.964Z,101612.78
2023-02-16T15:30:25.888Z,101636.66
2023-02-16T15:32:56.073Z,101664.34
2023-02-16T15:35:27.698Z,101666.38
2023-02-16T15:38:08.242Z,101633.00
2023-02-16T15:40:36.431Z,101652.66
2023-02-16T15:43:19.951Z,101643.84
2023-02-16T15:45:52.884Z,101658.72
2023-02-16T15:48:27.820Z,101648.75
2023-02-16T15:50:58.406Z,101637.47
2023-02-16T15:53:37.253Z,101580.03
2023-02-16T15:56:17.209Z,101588.06
2023-02-16T15:58:45.339Z,101556.19
2023-02-16T16:01:31.656Z,101515.94
2023-02-16T16:04:02.375Z,101542.25
2023-02-16T16:06:35.982Z,101548.75
2023-02-16T16:09:06.136Z,101539.09
2023-02-16T16:11:34.805Z,101527.19
2023-02-16T16:14:04.587Z,101557.84
2023-02-16T16:16:34.981Z,101542.06
2023-02-16T16:19:09.210Z,101544.13
2023-02-16T16:21:48.348Z,101523.94
2023-02-16T16:24:32.621Z,101565.16
2023-02-16T16:27:02.976Z,101577.25
2023-02-16T16:29:34.006Z,101562.72
2023-02-16T16:32:03.927Z,101558.38
2023-02-16T16:34:41.917Z,101581.31
2023-02-16T16:37:23.551Z,101562.81
2023-02-16T16:40:03.879Z,101513.22
2023-02-16T16:42:33.608Z,101468.13
2023-02-16T16:45:06.993Z,101433.63
2023-02-16T16:47:39.733Z,101366.56
2023-02-16T16:50:24.177Z,101362.53
2023-02-16T16:52:55.089Z,101356.31
2023-02-16T16:55:33.092Z,101361.16
2023-02-16T16:58:03.427Z,101362.41
2023-02-16T17:00:34.937Z,101395.81
2023-02-16T17:03:06.443Z,101392.38
2023-02-16T17:05:34.391Z,101408.06
2023-02-16T17:08:02.348Z,101449.84
2023-02-16T17:10:32.923Z,101450.03
2023-02-16T17:13:01.211Z,101398.63
2023-02-16T17:15:44.871Z,101367.75
2023-02-16T17:18:18.280Z,101358.09
2023-02-16T17:20:46.515Z,101379.38
2023-02-16T17:23:16.293Z,101355.00
2023-02-16T17:25:44.719Z,101357.50
2023-02-16T17:28:14.150Z,101352.63
2023-02-16T17:30:42.280Z,101337.59
2023-02-16T17:33:11.211Z,101338.16
2023-02-16T17:35:42.664Z,101330.28
2023-02-16T17:38:12.259Z,101329.91
2023-02-16T17:40:41.337Z,101324.13
2023-02-16T17:43:13.768Z,101334.13
2023-02-16T17:45:42.033Z,101318.84
2023-02-16T17:48:16.166Z,101323.81
2023-02-16T17:50:45.569Z,101333.06
2023-02-16T17:53:14.636Z,101314.13
2023-02-16T17:55:42.659Z,101319.41
2023-02-16T17:58:11.934Z,101313.28
2023-02-16T18:00:40.710Z,101317.59
2023-02-16T18:03:12.261Z,101315.81
2023-02-16T18:05:40.205Z,101323.06
2023-02-16T18:08:09.339Z,101320.31
2023-02-16T18:10:46.365Z,101311.56
2023-02-16T18:13:14.960Z,101310.94
2023-02-16T18:15:47.601Z,101309.78
2023-02-16T18:18:16.786Z,101309.97
2023-02-16T18:20:47.826Z,101310.75
2023-02-16T18:23:19.609Z,101311.38
2023-02-16T18:25:48.659Z,101310.28
2023-02-16T18:28:22.259Z,101317.53
2023-02-16T18:30:50.817Z,101326.38
2023-02-16T18:33:18.610Z,101319.00
2023-02-16T18:35:47.520Z,101320.38
2023-02-16T18:38:17.054Z,101318.25
2023-02-16T18:40:48.095Z,101311.47
2023-02-16T18:43:15.950Z,101304.91
2023-02-16T18:45:44.960Z,101296.03
2023-02-16T18:48:12.753Z,101288.78
2023-02-16T18:50:40.691Z,101298.72
2023-02-16T18:53:08.504Z,101307.72
2023-02-16T18:55:37.603Z,101306.44
2023-02-16T18:58:09.126Z,101310.28
2023-02-16T19:00:37.093Z,101310.50
2023-02-16T19:03:05.398Z,101309.28
2023-02-16T19:05:33.614Z,101310.56
2023-02-16T19:08:01.429Z,101309.88
2023-02-16T19:10:29.997Z,101308.75
2023-02-16T19:13:01.110Z,101304.59
2023-02-16T19:15:29.023Z,101298.81
2023-02-16T19:17:56.809Z,101298.06
2023-02-16T19:20:25.531Z,101291.09
2023-02-16T19:22:53.295Z,101275.25
2023-02-16T19:25:21.264Z,101266.06
2023-02-16T19:27:49.259Z,101280.16
2023-02-16T19:30:21.607Z,101288.53
2023-02-16T19:32:49.705Z,101278.56
2023-02-16T19:35:17.838Z,101277.94
2023-02-16T19:37:45.705Z,101293.69
2023-02-16T19:40:14.223Z,101276.09
2023-02-16T19:42:42.009Z,101264.63
2023-02-16T19:45:10.353Z,101281.53
2023-02-16T19:47:39.475Z,101269.03
2023-02-16T19:50:08.344Z,101268.69
2023-02-16T19:52:36.246Z,101266.47
2023-02-16T19:55:03.981Z,101279.06
2023-02-16T19:57:31.689Z,101258.13
2023-02-16T19:59:59.452Z,101253.41
2023-02-16T20:02:27.323Z,101250.19
2023-02-16T20:04:56.474Z,101235.88
2023-02-16T20:07:24.213Z,101244.13
2023-02-16T20:09:51.902Z,101239.78
2023-02-16T20:12:19.662Z,101237.22
2023-02-16T20:14:47.396Z,101240.66
2023-02-16T20:17:15.130Z,101245.88
2023-02-16T20:19:42.898Z,101246.84
2023-02-16T20:22:12.178Z,101241.16
2023-02-16T20:24:39.900Z,101245.78
2023-02-16T20:27:07.629Z,101241.59
2023-02-16T20:29:35.448Z,101234.00
2023-02-16T20:32:04.917Z,101236.00
2023-02-16T20:34:33.505Z,101241.69
2023-02-16T20:37:01.364Z,101247.22
2023-02-16T20:39:30.511Z,101241.03
2023-02-16T20:41:59.276Z,101235.53
2023-02-16T20:44:27.677Z,101237.50
2023-02-16T20:46:55.414Z,101237.19
2023-02-16T20:49:23.376Z,101229.25
2023-02-16T20:51:51.109Z,101237.94
2023-02-16T20:54:18.923Z,101224.09
2023-02-16T20:56:48.090Z,101216.28
2023-02-16T20:59:15.823Z,101216.53
2023-02-16T21:01:46.519Z,101210.78
2023-02-16T21:04:17.129Z,101203.16
2023-02-16T21:06:45.178Z,101201.84
2023-02-16T21:09:13.194Z,101208.91
2023-02-16T21:11:41.802Z,101203.97
2023-02-16T21:14:12.738Z,101204.66
2023-02-16T21:16:40.949Z,101198.88
2023-02-16T21:19:21.192Z,101209.56
2023-02-16T21:21:50.447Z,101196.91
2023-02-16T21:24:18.333Z,101204.34
2023-02-16T21:26:46.047Z,101207.66
2023-02-16T21:29:18.484Z,101193.19
2023-02-16T21:31:46.325Z,101201.25
2023-02-16T21:34:14.169Z,101198.53
2023-02-16T21:36:41.910Z,101196.09
2023-02-16T21:39:09.765Z,101206.19
2023-02-16T21:41:36.984Z,101201.53
2023-02-16T21:44:07.648Z,101199.59
2023-02-16T21:46:39.017Z,101199.38
2023-02-16T21:49:07.316Z,101195.16
2023-02-16T21:51:37.024Z,101187.56
2023-02-16T21:54:07.289Z,101184.97
2023-02-16T21:56:38.625Z,101181.13
2023-02-16T21:59:08.584Z,101181.06
2023-02-16T22:01:39.852Z,101174.34
2023-02-16T22:04:07.721Z,101180.97
2023-02-16T22:06:38.777Z,101182.47
2023-02-16T22:09:09.017Z,101190.47
2023-02-16T22:11:37.800Z,101179.75
2023-02-16T22:14:05.972Z,101176.78
2023-02-16T22:16:36.633Z,101174.38
2023-02-16T22:19:08.710Z,101179.84
2023-02-16T22:21:37.921Z,101183.66
2023-02-16T22:24:06.731Z,101176.41
2023-02-16T22:26:36.015Z,101171.78
2023-02-16T22:29:05.673Z,101170.00
2023-02-16T22:31:34.264Z,101170.16
2023-02-16T22:34:06.108Z,101182.44
2023-02-16T22:36:34.576Z,101172.53
2023-02-16T22:39:02.323Z,101160.03
2023-02-16T22:41:30.246Z,101152.06
2023-02-16T22:43:59.204Z,101150.59
2023-02-16T22:46:28.080Z,101153.75
2023-02-16T22:48:58.363Z,101145.16
2023-02-16T22:51:29.494Z,101144.69
2023-02-16T22:53:58.964Z,101138.66
2023-02-16T22:56:26.893Z,101162.88
2023-02-16T22:58:57.500Z,101154.47
2023-02-16T23:01:26.602Z,101165.91
2023-02-16T23:03:57.501Z,101185.41
2023-02-16T23:06:28.977Z,101149.03
2023-02-16T23:08:58.689Z,101140.41
2023-02-16T23:11:27.613Z,101142.41
2023-02-16T23:13:55.703Z,101131.03
2023-02-16T23:16:25.181Z,101142.84
2023-02-16T23:18:53.204Z,101129.22
2023-02-16T23:21:23.413Z,101132.16
2023-02-16T23:23:54.408Z,101124.22
2023-02-16T23:26:24.017Z,101116.59
2023-02-16T23:28:53.128Z,101108.72
2023-02-16T23:31:22.194Z,101104.72
2023-02-16T23:33:50.219Z,101116.03
2023-02-16T23:36:18.800Z,101111.88
2023-02-16T23:38:46.566Z,101102.47
2023-02-16T23:41:16.690Z,101101.09
2023-02-16T23:43:44.473Z,101092.75
2023-02-16T23:46:12.440Z,101084.91
2023-02-16T23:48:40.194Z,101094.84
2023-02-16T23:51:08.807Z,101083.75
2023-02-16T23:53:37.768Z,101071.34
2023-02-16T23:56:09.024Z,101077.97
2023-02-16T23:58:41.404Z,101088.00
